sensor_id;sensor_type;location;lat;lon;timestamp;P1;durP1;ratioP1;P2;durP2;ratioP2
20729;SDS011;10526;50.850;12.928;2023-07-20T00:00:57;13.13;;;6.25;;
20729;SDS011;10526;50.850;12.928;2023-07-20T00:05:20;15.57;;;6.38;;
20729;SDS011;10526;50.850;12.928;2023-07-20T00:09:46;15.38;;;7.25;;
20729;SDS011;10526;50.850;12.928;2023-07-20T00:14:09;14.07;;;6.32;;
20729;SDS011;10526;50.850;12.928;2023-07-20T00:18:30;15.70;;;6.55;;
20729;SDS011;10526;50.850;12.928;2023-07-20T00:22:52;13.77;;;6.68;;
20729;SDS011;10526;50.850;12.928;2023-07-20T00:27:16;15.05;;;6.82;;
20729;SDS011;10526;50.850;12.928;2023-07-20T00:31:38;12.43;;;6.22;;
20729;SDS011;10526;50.850;12.928;2023-07-20T00:36:00;14.45;;;7.18;;
20729;SDS011;10526;50.850;12.928;2023-07-20T00:40:22;15.35;;;7.32;;
20729;SDS011;10526;50.850;12.928;2023-07-20T00:44:44;14.63;;;6.80;;
20729;SDS011;10526;50.850;12.928;2023-07-20T00:49:07;13.57;;;6.88;;
20729;SDS011;10526;50.850;12.928;2023-07-20T00:53:29;14.10;;;6.93;;
20729;SDS011;10526;50.850;12.928;2023-07-20T00:57:51;13.48;;;6.93;;
20729;SDS011;10526;50.850;12.928;2023-07-20T01:02:13;16.83;;;7.05;;
20729;SDS011;10526;50.850;12.928;2023-07-20T01:11:10;16.83;;;8.38;;
20729;SDS011;10526;50.850;12.928;2023-07-20T01:16:01;16.25;;;8.70;;
20729;SDS011;10526;50.850;12.928;2023-07-20T01:20:24;20.25;;;9.40;;
20729;SDS011;10526;50.850;12.928;2023-07-20T01:25:08;18.63;;;9.20;;
20729;SDS011;10526;50.850;12.928;2023-07-20T01:34:54;17.77;;;10.07;;
20729;SDS011;10526;50.850;12.928;2023-07-20T01:39:18;18.77;;;9.52;;
20729;SDS011;10526;50.850;12.928;2023-07-20T01:43:42;17.85;;;9.55;;
20729;SDS011;10526;50.850;12.928;2023-07-20T01:48:04;20.45;;;11.18;;
20729;SDS011;10526;50.850;12.928;2023-07-20T01:52:26;23.00;;;11.57;;
20729;SDS011;10526;50.850;12.928;2023-07-20T01:56:48;23.38;;;12.55;;
20729;SDS011;10526;50.850;12.928;2023-07-20T02:01:10;21.02;;;11.55;;
20729;SDS011;10526;50.850;12.928;2023-07-20T02:05:32;23.50;;;13.68;;
20729;SDS011;10526;50.850;12.928;2023-07-20T02:09:54;23.10;;;13.63;;
20729;SDS011;10526;50.850;12.928;2023-07-20T02:14:16;23.52;;;14.40;;
20729;SDS011;10526;50.850;12.928;2023-07-20T02:18:38;22.50;;;14.50;;
20729;SDS011;10526;50.850;12.928;2023-07-20T02:23:01;26.45;;;15.40;;
20729;SDS011;10526;50.850;12.928;2023-07-20T02:27:23;26.40;;;14.88;;
20729;SDS011;10526;50.850;12.928;2023-07-20T02:31:45;20.77;;;13.75;;
20729;SDS011;10526;50.850;12.928;2023-07-20T02:36:07;23.15;;;14.35;;
20729;SDS011;10526;50.850;12.928;2023-07-20T02:40:29;27.13;;;14.43;;
20729;SDS011;10526;50.850;12.928;2023-07-20T02:44:51;26.42;;;14.60;;
20729;SDS011;10526;50.850;12.928;2023-07-20T02:49:13;25.02;;;15.30;;
20729;SDS011;10526;50.850;12.928;2023-07-20T02:53:36;25.58;;;15.15;;
20729;SDS011;10526;50.850;12.928;2023-07-20T02:57:58;24.30;;;14.77;;
20729;SDS011;10526;50.850;12.928;2023-07-20T03:02:20;22.30;;;13.05;;
20729;SDS011;10526;50.850;12.928;2023-07-20T03:06:43;25.30;;;13.70;;
20729;SDS011;10526;50.850;12.928;2023-07-20T03:11:05;21.38;;;12.32;;
20729;SDS011;10526;50.850;12.928;2023-07-20T03:15:27;22.27;;;12.68;;
20729;SDS011;10526;50.850;12.928;2023-07-20T03:19:51;23.17;;;13.80;;
20729;SDS011;10526;50.850;12.928;2023-07-20T03:24:13;19.95;;;12.90;;
20729;SDS011;10526;50.850;12.928;2023-07-20T03:28:35;23.08;;;12.88;;
20729;SDS011;10526;50.850;12.928;2023-07-20T03:32:59;20.63;;;12.90;;
20729;SDS011;10526;50.850;12.928;2023-07-20T03:37:21;22.60;;;12.23;;
20729;SDS011;10526;50.850;12.928;2023-07-20T03:41:43;25.58;;;14.65;;
20729;SDS011;10526;50.850;12.928;2023-07-20T03:46:05;20.88;;;11.75;;
20729;SDS011;10526;50.850;12.928;2023-07-20T03:50:28;20.88;;;13.13;;
20729;SDS011;10526;50.850;12.928;2023-07-20T03:54:51;22.90;;;11.07;;
20729;SDS011;10526;50.850;12.928;2023-07-20T03:59:13;20.00;;;10.48;;
20729;SDS011;10526;50.850;12.928;2023-07-20T04:03:35;16.58;;;8.88;;
20729;SDS011;10526;50.850;12.928;2023-07-20T04:07:58;16.35;;;8.25;;
20729;SDS011;10526;50.850;12.928;2023-07-20T04:12:19;17.08;;;8.18;;
20729;SDS011;10526;50.850;12.928;2023-07-20T04:16:42;12.18;;;6.50;;
20729;SDS011;10526;50.850;12.928;2023-07-20T04:21:04;11.90;;;5.22;;
20729;SDS011;10526;50.850;12.928;2023-07-20T04:25:26;13.32;;;4.90;;
20729;SDS011;10526;50.850;12.928;2023-07-20T04:29:49;13.48;;;5.30;;
20729;SDS011;10526;50.850;12.928;2023-07-20T04:34:11;10.07;;;4.82;;
20729;SDS011;10526;50.850;12.928;2023-07-20T04:38:33;10.10;;;4.40;;
20729;SDS011;10526;50.850;12.928;2023-07-20T04:43:13;10.70;;;4.65;;
20729;SDS011;10526;50.850;12.928;2023-07-20T04:47:37;8.95;;;4.57;;
20729;SDS011;10526;50.850;12.928;2023-07-20T04:52:00;10.77;;;4.10;;
20729;SDS011;10526;50.850;12.928;2023-07-20T04:56:24;11.52;;;4.80;;
20729;SDS011;10526;50.850;12.928;2023-07-20T05:00:49;21.35;;;5.28;;
20729;SDS011;10526;50.850;12.928;2023-07-20T05:05:12;11.23;;;4.97;;
20729;SDS011;10526;50.850;12.928;2023-07-20T05:09:34;11.95;;;5.15;;
20729;SDS011;10526;50.850;12.928;2023-07-20T05:13:56;12.48;;;5.47;;
20729;SDS011;10526;50.850;12.928;2023-07-20T05:18:19;11.20;;;5.00;;
20729;SDS011;10526;50.850;12.928;2023-07-20T05:22:43;9.13;;;4.50;;
20729;SDS011;10526;50.850;12.928;2023-07-20T05:27:05;11.90;;;5.32;;
20729;SDS011;10526;50.850;12.928;2023-07-20T05:31:27;11.07;;;5.47;;
20729;SDS011;10526;50.850;12.928;2023-07-20T05:35:51;14.38;;;6.55;;
20729;SDS011;10526;50.850;12.928;2023-07-20T05:40:14;13.65;;;7.60;;
20729;SDS011;10526;50.850;12.928;2023-07-20T05:44:40;14.88;;;7.82;;
20729;SDS011;10526;50.850;12.928;2023-07-20T05:49:03;20.05;;;7.95;;
20729;SDS011;10526;50.850;12.928;2023-07-20T05:53:25;13.65;;;6.78;;
20729;SDS011;10526;50.850;12.928;2023-07-20T05:57:47;13.82;;;6.40;;
20729;SDS011;10526;50.850;12.928;2023-07-20T06:02:10;11.00;;;4.43;;
20729;SDS011;10526;50.850;12.928;2023-07-20T06:06:33;6.00;;;3.25;;
20729;SDS011;10526;50.850;12.928;2023-07-20T06:10:55;7.85;;;2.65;;
20729;SDS011;10526;50.850;12.928;2023-07-20T06:19:49;9.77;;;4.00;;
20729;SDS011;10526;50.850;12.928;2023-07-20T06:24:11;8.75;;;3.20;;
20729;SDS011;10526;50.850;12.928;2023-07-20T06:28:33;7.22;;;3.17;;
20729;SDS011;10526;50.850;12.928;2023-07-20T06:32:55;5.70;;;2.47;;
20729;SDS011;10526;50.850;12.928;2023-07-20T06:37:17;8.13;;;2.90;;
20729;SDS011;10526;50.850;12.928;2023-07-20T06:41:41;7.20;;;2.60;;
20729;SDS011;10526;50.850;12.928;2023-07-20T06:46:03;8.13;;;2.63;;
20729;SDS011;10526;50.850;12.928;2023-07-20T06:50:25;8.73;;;2.35;;
20729;SDS011;10526;50.850;12.928;2023-07-20T06:54:48;5.47;;;1.83;;
20729;SDS011;10526;50.850;12.928;2023-07-20T06:59:10;3.47;;;1.60;;
20729;SDS011;10526;50.850;12.928;2023-07-20T07:03:32;7.20;;;1.65;;
20729;SDS011;10526;50.850;12.928;2023-07-20T07:07:55;5.50;;;1.83;;
20729;SDS011;10526;50.850;12.928;2023-07-20T07:12:17;6.22;;;1.70;;
20729;SDS011;10526;50.850;12.928;2023-07-20T07:16:39;5.28;;;1.60;;
20729;SDS011;10526;50.850;12.928;2023-07-20T07:21:01;9.70;;;1.95;;
20729;SDS011;10526;50.850;12.928;2023-07-20T07:25:24;6.32;;;1.60;;
20729;SDS011;10526;50.850;12.928;2023-07-20T07:29:46;7.45;;;1.83;;
20729;SDS011;10526;50.850;12.928;2023-07-20T07:34:09;3.40;;;1.67;;
20729;SDS011;10526;50.850;12.928;2023-07-20T07:38:31;4.88;;;2.05;;
20729;SDS011;10526;50.850;12.928;2023-07-20T07:43:13;5.47;;;2.30;;
20729;SDS011;10526;50.850;12.928;2023-07-20T07:47:35;5.57;;;2.70;;
20729;SDS011;10526;50.850;12.928;2023-07-20T07:51:57;6.72;;;2.88;;
20729;SDS011;10526;50.850;12.928;2023-07-20T07:56:19;4.93;;;2.45;;
20729;SDS011;10526;50.850;12.928;2023-07-20T08:00:45;8.98;;;2.65;;
20729;SDS011;10526;50.850;12.928;2023-07-20T08:05:09;7.43;;;2.88;;
20729;SDS011;10526;50.850;12.928;2023-07-20T08:09:31;5.90;;;2.67;;
20729;SDS011;10526;50.850;12.928;2023-07-20T08:13:54;7.28;;;3.05;;
20729;SDS011;10526;50.850;12.928;2023-07-20T08:18:16;5.47;;;2.40;;
20729;SDS011;10526;50.850;12.928;2023-07-20T08:22:38;9.63;;;2.75;;
20729;SDS011;10526;50.850;12.928;2023-07-20T08:27:00;7.30;;;2.97;;
20729;SDS011;10526;50.850;12.928;2023-07-20T08:31:24;6.88;;;2.63;;
20729;SDS011;10526;50.850;12.928;2023-07-20T08:35:47;8.63;;;3.72;;
20729;SDS011;10526;50.850;12.928;2023-07-20T08:40:09;6.85;;;2.88;;
20729;SDS011;10526;50.850;12.928;2023-07-20T08:44:35;8.88;;;3.30;;
20729;SDS011;10526;50.850;12.928;2023-07-20T08:49:00;7.88;;;3.38;;
20729;SDS011;10526;50.850;12.928;2023-07-20T08:53:24;8.73;;;3.00;;
20729;SDS011;10526;50.850;12.928;2023-07-20T08:57:48;9.75;;;2.55;;
20729;SDS011;10526;50.850;12.928;2023-07-20T09:02:15;7.03;;;2.88;;
20729;SDS011;10526;50.850;12.928;2023-07-20T09:06:40;7.43;;;2.90;;
20729;SDS011;10526;50.850;12.928;2023-07-20T09:11:06;9.60;;;3.00;;
20729;SDS011;10526;50.850;12.928;2023-07-20T09:15:28;8.13;;;2.92;;
20729;SDS011;10526;50.850;12.928;2023-07-20T09:19:51;9.02;;;2.85;;
20729;SDS011;10526;50.850;12.928;2023-07-20T09:24:13;6.15;;;2.35;;
20729;SDS011;10526;50.850;12.928;2023-07-20T09:28:44;6.90;;;2.53;;
20729;SDS011;10526;50.850;12.928;2023-07-20T09:33:24;5.45;;;2.50;;
20729;SDS011;10526;50.850;12.928;2023-07-20T09:37:54;5.18;;;2.45;;
20729;SDS011;10526;50.850;12.928;2023-07-20T09:42:29;8.05;;;2.80;;
20729;SDS011;10526;50.850;12.928;2023-07-20T09:46:58;7.22;;;2.63;;
20729;SDS011;10526;50.850;12.928;2023-07-20T09:51:23;6.63;;;2.47;;
20729;SDS011;10526;50.850;12.928;2023-07-20T09:55:46;6.38;;;2.38;;
20729;SDS011;10526;50.850;12.928;2023-07-20T10:00:09;4.47;;;2.20;;
20729;SDS011;10526;50.850;12.928;2023-07-20T10:04:38;4.43;;;2.05;;
20729;SDS011;10526;50.850;12.928;2023-07-20T10:09:02;8.63;;;2.17;;
20729;SDS011;10526;50.850;12.928;2023-07-20T10:13:28;6.60;;;2.10;;
20729;SDS011;10526;50.850;12.928;2023-07-20T10:22:27;7.05;;;2.33;;
20729;SDS011;10526;50.850;12.928;2023-07-20T10:27:01;4.40;;;2.10;;
20729;SDS011;10526;50.850;12.928;2023-07-20T10:31:24;4.53;;;1.80;;
20729;SDS011;10526;50.850;12.928;2023-07-20T10:35:58;8.55;;;2.92;;
20729;SDS011;10526;50.850;12.928;2023-07-20T10:40:30;8.27;;;2.10;;
20729;SDS011;10526;50.850;12.928;2023-07-20T10:45:00;7.47;;;2.17;;
20729;SDS011;10526;50.850;12.928;2023-07-20T10:49:23;4.60;;;1.90;;
20729;SDS011;10526;50.850;12.928;2023-07-20T10:53:48;7.60;;;2.33;;
20729;SDS011;10526;50.850;12.928;2023-07-20T10:58:11;7.90;;;2.53;;
20729;SDS011;10526;50.850;12.928;2023-07-20T11:02:45;5.22;;;2.17;;
20729;SDS011;10526;50.850;12.928;2023-07-20T11:07:15;4.72;;;1.67;;
20729;SDS011;10526;50.850;12.928;2023-07-20T11:11:38;5.10;;;1.90;;
20729;SDS011;10526;50.850;12.928;2023-07-20T11:16:02;6.20;;;2.15;;
20729;SDS011;10526;50.850;12.928;2023-07-20T11:20:26;5.40;;;1.70;;
20729;SDS011;10526;50.850;12.928;2023-07-20T11:24:48;2.28;;;1.33;;
20729;SDS011;10526;50.850;12.928;2023-07-20T11:29:12;3.88;;;1.38;;
20729;SDS011;10526;50.850;12.928;2023-07-20T11:33:51;2.67;;;1.45;;
20729;SDS011;10526;50.850;12.928;2023-07-20T11:38:13;3.72;;;1.75;;
20729;SDS011;10526;50.850;12.928;2023-07-20T11:42:35;4.18;;;1.50;;
20729;SDS011;10526;50.850;12.928;2023-07-20T11:51:30;6.18;;;1.63;;
20729;SDS011;10526;50.850;12.928;2023-07-20T11:55:53;3.78;;;1.50;;
20729;SDS011;10526;50.850;12.928;2023-07-20T12:00:15;7.70;;;1.50;;
20729;SDS011;10526;50.850;12.928;2023-07-20T12:04:38;3.78;;;1.38;;
20729;SDS011;10526;50.850;12.928;2023-07-20T12:09:01;3.20;;;1.40;;
20729;SDS011;10526;50.850;12.928;2023-07-20T12:13:22;5.25;;;1.20;;
20729;SDS011;10526;50.850;12.928;2023-07-20T12:17:49;13.52;;;2.58;;
20729;SDS011;10526;50.850;12.928;2023-07-20T12:22:15;4.45;;;2.17;;
20729;SDS011;10526;50.850;12.928;2023-07-20T12:26:37;4.05;;;1.80;;
20729;SDS011;10526;50.850;12.928;2023-07-20T12:30:59;7.18;;;2.35;;
20729;SDS011;10526;50.850;12.928;2023-07-20T12:35:21;4.13;;;2.08;;
20729;SDS011;10526;50.850;12.928;2023-07-20T12:39:43;4.85;;;2.20;;
20729;SDS011;10526;50.850;12.928;2023-07-20T12:44:08;5.45;;;2.40;;
20729;SDS011;10526;50.850;12.928;2023-07-20T12:48:30;3.88;;;2.47;;
20729;SDS011;10526;50.850;12.928;2023-07-20T12:52:52;4.45;;;2.20;;
20729;SDS011;10526;50.850;12.928;2023-07-20T12:57:14;4.00;;;2.40;;
20729;SDS011;10526;50.850;12.928;2023-07-20T13:01:36;6.40;;;2.40;;
20729;SDS011;10526;50.850;12.928;2023-07-20T13:05:59;4.78;;;2.38;;
20729;SDS011;10526;50.850;12.928;2023-07-20T13:10:24;6.22;;;2.47;;
20729;SDS011;10526;50.850;12.928;2023-07-20T13:14:46;3.50;;;1.80;;
20729;SDS011;10526;50.850;12.928;2023-07-20T13:19:08;3.78;;;1.67;;
20729;SDS011;10526;50.850;12.928;2023-07-20T13:23:30;2.10;;;1.52;;
20729;SDS011;10526;50.850;12.928;2023-07-20T13:27:52;3.03;;;1.48;;
20729;SDS011;10526;50.850;12.928;2023-07-20T13:32:14;3.92;;;1.70;;
20729;SDS011;10526;50.850;12.928;2023-07-20T13:36:38;4.18;;;1.58;;
20729;SDS011;10526;50.850;12.928;2023-07-20T13:41:00;4.63;;;1.77;;
20729;SDS011;10526;50.850;12.928;2023-07-20T13:45:22;7.53;;;1.80;;
20729;SDS011;10526;50.850;12.928;2023-07-20T13:49:44;2.50;;;1.48;;
20729;SDS011;10526;50.850;12.928;2023-07-20T13:54:09;2.55;;;1.52;;
20729;SDS011;10526;50.850;12.928;2023-07-20T13:58:36;5.15;;;1.40;;
20729;SDS011;10526;50.850;12.928;2023-07-20T14:03:01;3.80;;;1.35;;
20729;SDS011;10526;50.850;12.928;2023-07-20T14:07:26;7.32;;;2.00;;
20729;SDS011;10526;50.850;12.928;2023-07-20T14:11:48;2.35;;;1.17;;
20729;SDS011;10526;50.850;12.928;2023-07-20T14:16:12;2.25;;;1.17;;
20729;SDS011;10526;50.850;12.928;2023-07-20T14:20:35;4.13;;;1.42;;
20729;SDS011;10526;50.850;12.928;2023-07-20T14:24:59;5.88;;;1.50;;
20729;SDS011;10526;50.850;12.928;2023-07-20T14:29:21;3.53;;;1.38;;
20729;SDS011;10526;50.850;12.928;2023-07-20T14:33:47;3.45;;;1.52;;
20729;SDS011;10526;50.850;12.928;2023-07-20T14:38:09;3.20;;;1.13;;
20729;SDS011;10526;50.850;12.928;2023-07-20T14:42:31;2.38;;;1.48;;
20729;SDS011;10526;50.850;12.928;2023-07-20T14:46:53;2.97;;;1.55;;
20729;SDS011;10526;50.850;12.928;2023-07-20T14:51:33;2.97;;;1.15;;
20729;SDS011;10526;50.850;12.928;2023-07-20T14:55:59;3.03;;;1.40;;
20729;SDS011;10526;50.850;12.928;2023-07-20T15:00:24;3.17;;;1.40;;
20729;SDS011;10526;50.850;12.928;2023-07-20T15:04:50;0.95;;;0.88;;
20729;SDS011;10526;50.850;12.928;2023-07-20T15:09:13;1.20;;;0.90;;
20729;SDS011;10526;50.850;12.928;2023-07-20T15:13:35;1.65;;;1.10;;
20729;SDS011;10526;50.850;12.928;2023-07-20T15:17:57;2.00;;;1.40;;
20729;SDS011;10526;50.850;12.928;2023-07-20T15:22:19;1.52;;;1.00;;
20729;SDS011;10526;50.850;12.928;2023-07-20T15:26:41;1.73;;;1.10;;
20729;SDS011;10526;50.850;12.928;2023-07-20T15:31:04;1.92;;;1.27;;
20729;SDS011;10526;50.850;12.928;2023-07-20T15:35:26;2.85;;;1.30;;
20729;SDS011;10526;50.850;12.928;2023-07-20T15:39:48;3.67;;;1.10;;
20729;SDS011;10526;50.850;12.928;2023-07-20T15:44:12;2.15;;;1.00;;
20729;SDS011;10526;50.850;12.928;2023-07-20T15:48:34;5.28;;;1.98;;
20729;SDS011;10526;50.850;12.928;2023-07-20T15:52:56;2.40;;;1.50;;
20729;SDS011;10526;50.850;12.928;2023-07-20T15:57:18;3.90;;;1.33;;
20729;SDS011;10526;50.850;12.928;2023-07-20T16:01:40;3.03;;;1.65;;
20729;SDS011;10526;50.850;12.928;2023-07-20T16:06:04;1.95;;;1.23;;
20729;SDS011;10526;50.850;12.928;2023-07-20T16:10:26;2.28;;;1.40;;
20729;SDS011;10526;50.850;12.928;2023-07-20T16:14:49;2.97;;;1.13;;
20729;SDS011;10526;50.850;12.928;2023-07-20T16:19:14;1.63;;;1.20;;
20729;SDS011;10526;50.850;12.928;2023-07-20T16:23:37;0.90;;;0.90;;
20729;SDS011;10526;50.850;12.928;2023-07-20T16:27:58;4.43;;;1.20;;
20729;SDS011;10526;50.850;12.928;2023-07-20T16:32:20;2.63;;;1.08;;
20729;SDS011;10526;50.850;12.928;2023-07-20T16:36:42;1.27;;;0.80;;
20729;SDS011;10526;50.850;12.928;2023-07-20T16:41:07;2.40;;;1.10;;
20729;SDS011;10526;50.850;12.928;2023-07-20T16:45:33;1.50;;;1.05;;
20729;SDS011;10526;50.850;12.928;2023-07-20T16:49:56;0.77;;;0.73;;
20729;SDS011;10526;50.850;12.928;2023-07-20T16:54:18;3.17;;;1.45;;
20729;SDS011;10526;50.850;12.928;2023-07-20T16:58:40;3.30;;;1.23;;
20729;SDS011;10526;50.850;12.928;2023-07-20T17:03:02;2.65;;;1.45;;
20729;SDS011;10526;50.850;12.928;2023-07-20T17:07:24;3.20;;;1.60;;
20729;SDS011;10526;50.850;12.928;2023-07-20T17:11:47;2.60;;;1.60;;
20729;SDS011;10526;50.850;12.928;2023-07-20T17:16:09;2.47;;;1.27;;
20729;SDS011;10526;50.850;12.928;2023-07-20T17:20:32;2.38;;;1.42;;
20729;SDS011;10526;50.850;12.928;2023-07-20T17:24:58;2.95;;;1.30;;
20729;SDS011;10526;50.850;12.928;2023-07-20T17:29:22;5.88;;;2.00;;
20729;SDS011;10526;50.850;12.928;2023-07-20T17:33:45;4.07;;;1.80;;
20729;SDS011;10526;50.850;12.928;2023-07-20T17:38:09;4.43;;;2.33;;
20729;SDS011;10526;50.850;12.928;2023-07-20T17:42:34;3.53;;;1.83;;
20729;SDS011;10526;50.850;12.928;2023-07-20T17:47:00;7.25;;;2.60;;
20729;SDS011;10526;50.850;12.928;2023-07-20T17:51:25;3.55;;;1.92;;
20729;SDS011;10526;50.850;12.928;2023-07-20T17:55:47;2.92;;;1.60;;
20729;SDS011;10526;50.850;12.928;2023-07-20T18:00:09;3.78;;;1.95;;
20729;SDS011;10526;50.850;12.928;2023-07-20T18:04:35;6.75;;;2.30;;
20729;SDS011;10526;50.850;12.928;2023-07-20T18:08:57;4.97;;;2.30;;
20729;SDS011;10526;50.850;12.928;2023-07-20T18:13:19;2.53;;;1.90;;
20729;SDS011;10526;50.850;12.928;2023-07-20T18:17:41;4.45;;;2.30;;
20729;SDS011;10526;50.850;12.928;2023-07-20T18:22:03;3.47;;;2.10;;
20729;SDS011;10526;50.850;12.928;2023-07-20T18:26:25;3.17;;;2.00;;
20729;SDS011;10526;50.850;12.928;2023-07-20T18:30:47;5.47;;;1.80;;
20729;SDS011;10526;50.850;12.928;2023-07-20T18:35:10;4.43;;;2.20;;
20729;SDS011;10526;50.850;12.928;2023-07-20T18:39:33;3.72;;;2.13;;
20729;SDS011;10526;50.850;12.928;2023-07-20T18:43:54;3.95;;;2.00;;
20729;SDS011;10526;50.850;12.928;2023-07-20T18:48:16;2.78;;;2.00;;
20729;SDS011;10526;50.850;12.928;2023-07-20T18:52:38;10.48;;;2.88;;
20729;SDS011;10526;50.850;12.928;2023-07-20T18:57:01;4.88;;;2.20;;
20729;SDS011;10526;50.850;12.928;2023-07-20T19:01:25;4.85;;;2.28;;
20729;SDS011;10526;50.850;12.928;2023-07-20T19:05:49;4.53;;;2.50;;
20729;SDS011;10526;50.850;12.928;2023-07-20T19:10:11;4.38;;;2.40;;
20729;SDS011;10526;50.850;12.928;2023-07-20T19:14:35;5.75;;;2.60;;
20729;SDS011;10526;50.850;12.928;2023-07-20T19:18:57;6.18;;;2.92;;
20729;SDS011;10526;50.850;12.928;2023-07-20T19:23:19;6.15;;;2.70;;
20729;SDS011;10526;50.850;12.928;2023-07-20T19:27:41;5.80;;;2.88;;
20729;SDS011;10526;50.850;12.928;2023-07-20T19:32:04;5.97;;;2.95;;
20729;SDS011;10526;50.850;12.928;2023-07-20T19:36:26;7.40;;;3.67;;
20729;SDS011;10526;50.850;12.928;2023-07-20T19:40:48;5.63;;;2.92;;
20729;SDS011;10526;50.850;12.928;2023-07-20T19:45:10;5.80;;;2.92;;
20729;SDS011;10526;50.850;12.928;2023-07-20T19:49:32;5.78;;;3.33;;
20729;SDS011;10526;50.850;12.928;2023-07-20T19:53:54;6.90;;;3.72;;
20729;SDS011;10526;50.850;12.928;2023-07-20T19:58:21;9.88;;;3.97;;
20729;SDS011;10526;50.850;12.928;2023-07-20T20:02:44;8.30;;;3.83;;
20729;SDS011;10526;50.850;12.928;2023-07-20T20:07:09;9.05;;;4.13;;
20729;SDS011;10526;50.850;12.928;2023-07-20T20:11:33;12.45;;;4.53;;
20729;SDS011;10526;50.850;12.928;2023-07-20T20:15:55;8.88;;;4.65;;
20729;SDS011;10526;50.850;12.928;2023-07-20T20:20:17;9.95;;;5.18;;
20729;SDS011;10526;50.850;12.928;2023-07-20T20:24:39;8.35;;;4.20;;
20729;SDS011;10526;50.850;12.928;2023-07-20T20:29:01;11.07;;;4.97;;
20729;SDS011;10526;50.850;12.928;2023-07-20T20:33:23;10.88;;;5.03;;
20729;SDS011;10526;50.850;12.928;2023-07-20T20:37:46;8.50;;;4.53;;
20729;SDS011;10526;50.850;12.928;2023-07-20T20:42:08;9.30;;;4.63;;
20729;SDS011;10526;50.850;12.928;2023-07-20T20:46:30;10.18;;;4.55;;
20729;SDS011;10526;50.850;12.928;2023-07-20T20:50:53;9.85;;;4.20;;
20729;SDS011;10526;50.850;12.928;2023-07-20T20:55:16;7.03;;;4.18;;
20729;SDS011;10526;50.850;12.928;2023-07-20T20:59:38;7.45;;;4.32;;
20729;SDS011;10526;50.850;12.928;2023-07-20T21:04:02;8.52;;;4.22;;
20729;SDS011;10526;50.850;12.928;2023-07-20T21:08:24;12.65;;;4.65;;
20729;SDS011;10526;50.850;12.928;2023-07-20T21:12:48;8.65;;;3.90;;
20729;SDS011;10526;50.850;12.928;2023-07-20T21:17:11;7.20;;;3.97;;
20729;SDS011;10526;50.850;12.928;2023-07-20T21:21:33;10.43;;;4.90;;
20729;SDS011;10526;50.850;12.928;2023-07-20T21:25:56;9.65;;;4.20;;
20729;SDS011;10526;50.850;12.928;2023-07-20T21:30:17;7.78;;;4.05;;
20729;SDS011;10526;50.850;12.928;2023-07-20T21:34:40;9.50;;;4.65;;
20729;SDS011;10526;50.850;12.928;2023-07-20T21:39:02;8.77;;;4.35;;
20729;SDS011;10526;50.850;12.928;2023-07-20T21:43:24;8.77;;;4.07;;
20729;SDS011;10526;50.850;12.928;2023-07-20T21:47:46;6.97;;;4.22;;
20729;SDS011;10526;50.850;12.928;2023-07-20T21:52:09;6.50;;;3.60;;
20729;SDS011;10526;50.850;12.928;2023-07-20T21:56:31;7.43;;;3.42;;
20729;SDS011;10526;50.850;12.928;2023-07-20T22:00:53;6.20;;;3.25;;
20729;SDS011;10526;50.850;12.928;2023-07-20T22:05:17;7.45;;;3.42;;
20729;SDS011;10526;50.850;12.928;2023-07-20T22:09:42;7.80;;;3.67;;
20729;SDS011;10526;50.850;12.928;2023-07-20T22:14:04;6.22;;;2.95;;
20729;SDS011;10526;50.850;12.928;2023-07-20T22:18:26;6.57;;;3.75;;
20729;SDS011;10526;50.850;12.928;2023-07-20T22:22:56;5.82;;;3.53;;
20729;SDS011;10526;50.850;12.928;2023-07-20T22:27:19;8.65;;;4.03;;
20729;SDS011;10526;50.850;12.928;2023-07-20T22:31:42;7.30;;;3.85;;
20729;SDS011;10526;50.850;12.928;2023-07-20T22:36:04;9.95;;;4.10;;
20729;SDS011;10526;50.850;12.928;2023-07-20T22:40:26;7.70;;;3.63;;
20729;SDS011;10526;50.850;12.928;2023-07-20T22:44:51;6.22;;;3.38;;
20729;SDS011;10526;50.850;12.928;2023-07-20T22:49:17;6.57;;;3.65;;
20729;SDS011;10526;50.850;12.928;2023-07-20T22:53:39;5.90;;;3.45;;
20729;SDS011;10526;50.850;12.928;2023-07-20T22:58:01;6.00;;;3.60;;
20729;SDS011;10526;50.850;12.928;2023-07-20T23:02:23;7.55;;;3.33;;
20729;SDS011;10526;50.850;12.928;2023-07-20T23:06:45;10.02;;;3.70;;
20729;SDS011;10526;50.850;12.928;2023-07-20T23:11:07;7.43;;;3.75;;
20729;SDS011;10526;50.850;12.928;2023-07-20T23:15:29;6.82;;;3.90;;
20729;SDS011;10526;50.850;12.928;2023-07-20T23:19:51;6.93;;;3.50;;
20729;SDS011;10526;50.850;12.928;2023-07-20T23:24:13;8.57;;;3.30;;
20729;SDS011;10526;50.850;12.928;2023-07-20T23:28:35;6.75;;;3.78;;
20729;SDS011;10526;50.850;12.928;2023-07-20T23:32:57;6.97;;;3.90;;
20729;SDS011;10526;50.850;12.928;2023-07-20T23:37:19;21.02;;;4.20;;
20729;SDS011;10526;50.850;12.928;2023-07-20T23:41:41;6.68;;;3.80;;
20729;SDS011;10526;50.850;12.928;2023-07-20T23:46:04;8.18;;;4.40;;
20729;SDS011;10526;50.850;12.928;2023-07-20T23:50:26;8.68;;;4.35;;
20729;SDS011;10526;50.850;12.928;2023-07-20T23:54:48;6.95;;;4.15;;
20729;SDS011;10526;50.850;12.928;2023-07-20T23:59:11;8.55;;;4.38;;
